createdAt,value
2023-05-21T00:01:08.034Z,10.50
2023-05-21T00:03:36.239Z,10.17
2023-05-21T00:06:04.035Z,11.10
2023-05-21T00:08:31.155Z,8.60
2023-05-21T00:10:58.062Z,10.70
2023-05-21T00:13:24.944Z,10.30
2023-05-21T00:15:51.850Z,11.80
2023-05-21T00:18:18.866Z,9.67
2023-05-21T00:20:45.812Z,10.37
2023-05-21T00:23:12.924Z,9.73
2023-05-21T00:25:39.701Z,10.73
2023-05-21T00:28:06.660Z,9.27
2023-05-21T00:30:33.450Z,11.00
2023-05-21T00:33:02.867Z,9.30
2023-05-21T00:35:30.122Z,11.87
2023-05-21T00:37:57.316Z,9.53
2023-05-21T00:40:24.414Z,11.00
2023-05-21T00:42:51.291Z,10.23
2023-05-21T00:45:18.208Z,10.17
2023-05-21T00:47:45.968Z,10.83
2023-05-21T00:50:14.944Z,10.73
2023-05-21T00:52:43.990Z,11.77
2023-05-21T00:55:10.962Z,10.80
2023-05-21T00:57:39.591Z,11.20
2023-05-21T01:00:09.012Z,11.53
2023-05-21T01:02:37.331Z,12.00
2023-05-21T01:05:06.681Z,9.43
2023-05-21T01:07:39.046Z,10.47
2023-05-21T01:10:08.500Z,11.07
2023-05-21T01:12:37.059Z,11.13
2023-05-21T01:15:04.990Z,11.33
2023-05-21T01:17:34.253Z,10.10
2023-05-21T01:20:01.889Z,9.63
2023-05-21T01:22:32.360Z,9.70
2023-05-21T01:25:02.733Z,10.47
2023-05-21T01:27:29.713Z,11.03
2023-05-21T01:29:57.141Z,9.17
2023-05-21T01:32:38.718Z,9.67
2023-05-21T01:35:11.216Z,9.67
2023-05-21T01:37:48.381Z,10.30
2023-05-21T01:40:22.623Z,10.47
2023-05-21T01:42:49.593Z,10.77
2023-05-21T01:45:17.654Z,10.37
2023-05-21T01:47:49.281Z,10.13
2023-05-21T01:50:18.153Z,9.87
2023-05-21T01:52:56.907Z,9.87
2023-05-21T01:55:24.741Z,9.90
2023-05-21T01:57:55.977Z,10.80
2023-05-21T02:00:24.599Z,9.80
2023-05-21T02:02:51.981Z,9.10
2023-05-21T02:05:18.865Z,9.93
2023-05-21T02:07:47.454Z,10.13
2023-05-21T02:10:14.291Z,10.83
2023-05-21T02:12:41.085Z,10.27
2023-05-21T02:15:08.074Z,9.47
2023-05-21T02:17:35.398Z,9.53
2023-05-21T02:20:11.239Z,10.13
2023-05-21T02:22:46.394Z,9.30
2023-05-21T02:25:15.884Z,9.27
2023-05-21T02:27:43.400Z,8.27
2023-05-21T02:30:12.197Z,9.67
2023-05-21T02:32:43.265Z,9.23
2023-05-21T02:35:12.277Z,8.33
2023-05-21T02:37:44.244Z,9.47
2023-05-21T02:40:12.247Z,8.30
2023-05-21T02:42:41.192Z,8.97
2023-05-21T02:45:12.413Z,8.77
2023-05-21T02:47:39.433Z,8.90
2023-05-21T02:50:07.798Z,8.63
2023-05-21T02:52:34.763Z,8.43
2023-05-21T02:55:01.546Z,8.73
2023-05-21T02:57:28.312Z,8.27
2023-05-21T02:59:55.107Z,7.40
2023-05-21T03:02:22.018Z,8.70
2023-05-21T03:04:48.939Z,8.10
2023-05-21T03:07:19.038Z,8.40
2023-05-21T03:09:46.124Z,7.70
2023-05-21T03:12:13.426Z,7.37
2023-05-21T03:14:40.211Z,9.00
2023-05-21T03:17:07.866Z,8.67
2023-05-21T03:19:36.284Z,8.40
2023-05-21T03:22:03.754Z,9.50
2023-05-21T03:24:31.818Z,8.70
2023-05-21T03:26:59.337Z,9.20
2023-05-21T03:29:26.189Z,9.03
2023-05-21T03:31:56.828Z,9.87
2023-05-21T03:34:24.339Z,8.70
2023-05-21T03:36:51.121Z,9.63
2023-05-21T03:39:18.380Z,9.10
2023-05-21T03:41:45.389Z,9.37
2023-05-21T03:44:12.216Z,9.07
2023-05-21T03:46:39.171Z,8.30
2023-05-21T03:49:06.202Z,8.90
2023-05-21T03:51:33.105Z,8.77
2023-05-21T03:54:01.341Z,9.40
2023-05-21T03:56:28.259Z,7.63
2023-05-21T03:58:55.092Z,8.10
2023-05-21T04:01:22.043Z,8.80
2023-05-21T04:03:48.943Z,7.70
2023-05-21T04:06:15.984Z,7.87
2023-05-21T04:08:43.089Z,7.80
2023-05-21T04:11:10.984Z,7.10
2023-05-21T04:13:38.806Z,7.80
2023-05-21T04:16:09.020Z,7.67
2023-05-21T04:18:35.991Z,8.60
2023-05-21T04:21:02.849Z,9.30
2023-05-21T04:23:29.691Z,9.00
2023-05-21T04:25:56.507Z,8.77
2023-05-21T04:28:24.213Z,8.60
2023-05-21T04:30:51.165Z,9.00
2023-05-21T04:33:18.519Z,8.23
2023-05-21T04:35:50.054Z,8.23
2023-05-21T04:38:19.837Z,8.33
2023-05-21T04:40:53.517Z,8.97
2023-05-21T04:43:26.114Z,7.10
2023-05-21T04:45:55.003Z,7.70
2023-05-21T04:48:27.159Z,8.90
2023-05-21T04:50:56.042Z,8.47
2023-05-21T04:53:26.048Z,7.30
2023-05-21T04:55:53.103Z,7.50
2023-05-21T04:58:19.943Z,7.37
2023-05-21T05:00:47.115Z,7.97
2023-05-21T05:03:14.600Z,7.43
2023-05-21T05:05:41.960Z,7.73
2023-05-21T05:08:08.812Z,8.70
2023-05-21T05:10:36.234Z,7.40
2023-05-21T05:13:03.151Z,7.47
2023-05-21T05:15:29.952Z,7.77
2023-05-21T05:17:56.838Z,6.70
2023-05-21T05:20:23.638Z,7.37
2023-05-21T05:22:50.505Z,7.90
2023-05-21T05:25:17.374Z,7.47
2023-05-21T05:27:44.268Z,7.20
2023-05-21T05:30:11.529Z,8.00
2023-05-21T05:32:38.453Z,7.93
2023-05-21T05:35:06.024Z,7.50
2023-05-21T05:37:33.652Z,8.10
2023-05-21T05:40:00.569Z,7.53
2023-05-21T05:42:27.350Z,8.90
2023-05-21T05:44:54.099Z,8.57
2023-05-21T05:47:21.857Z,8.63
2023-05-21T05:49:48.732Z,8.87
2023-05-21T05:52:15.937Z,8.27
2023-05-21T05:54:42.756Z,7.90
2023-05-21T05:57:09.515Z,8.50
2023-05-21T05:59:36.395Z,8.13
2023-05-21T06:02:03.359Z,8.03
2023-05-21T06:04:30.294Z,8.13
2023-05-21T06:07:00.556Z,7.90
2023-05-21T06:09:27.417Z,8.70
2023-05-21T06:11:54.402Z,7.20
2023-05-21T06:14:21.250Z,8.03
2023-05-21T06:16:48.014Z,8.87
2023-05-21T06:19:14.954Z,9.23
2023-05-21T06:21:41.954Z,8.50
2023-05-21T06:24:08.782Z,8.60
2023-05-21T06:26:35.847Z,8.87
2023-05-21T06:29:03.818Z,8.30
2023-05-21T06:31:33.104Z,8.20
2023-05-21T06:34:01.161Z,8.07
2023-05-21T06:36:30.061Z,8.60
2023-05-21T06:38:57.278Z,8.20
2023-05-21T06:41:24.478Z,9.67
2023-05-21T06:43:51.447Z,8.53
2023-05-21T06:46:18.348Z,8.80
2023-05-21T06:48:46.305Z,8.57
2023-05-21T06:51:13.416Z,8.47
2023-05-21T06:53:40.290Z,8.43
2023-05-21T06:56:07.410Z,9.30
2023-05-21T06:58:34.236Z,8.47
2023-05-21T07:01:01.776Z,9.60
2023-05-21T07:03:28.896Z,8.73
2023-05-21T07:05:57.332Z,9.50
2023-05-21T07:08:24.450Z,9.37
2023-05-21T07:10:51.401Z,9.53
2023-05-21T07:13:18.193Z,10.20
2023-05-21T07:15:45.061Z,8.10
2023-05-21T07:18:12.187Z,8.93
2023-05-21T07:20:39.076Z,8.97
2023-05-21T07:23:06.171Z,9.63
2023-05-21T07:25:32.943Z,9.10
2023-05-21T07:27:59.738Z,8.30
2023-05-21T07:30:26.580Z,9.90
2023-05-21T07:32:53.436Z,9.70
2023-05-21T07:35:20.508Z,9.30
2023-05-21T07:37:48.070Z,8.40
2023-05-21T07:40:14.986Z,10.03
2023-05-21T07:42:42.054Z,9.43
2023-05-21T07:45:09.326Z,9.67
2023-05-21T07:47:36.250Z,9.50
2023-05-21T07:50:03.242Z,9.63
2023-05-21T07:52:30.144Z,9.90
2023-05-21T07:54:57.000Z,11.00
2023-05-21T07:57:23.869Z,9.73
2023-05-21T07:59:51.151Z,8.80
2023-05-21T08:02:17.965Z,9.33
2023-05-21T08:04:44.769Z,9.27
2023-05-21T08:07:12.956Z,9.40
2023-05-21T08:09:39.769Z,10.20
2023-05-21T08:12:07.302Z,10.23
2023-05-21T08:14:34.317Z,10.30
2023-05-21T08:17:01.172Z,10.83
2023-05-21T08:19:28.083Z,10.23
2023-05-21T08:21:54.944Z,10.00
2023-05-21T08:24:21.688Z,10.17
2023-05-21T08:26:50.570Z,10.33
2023-05-21T08:29:17.437Z,9.40
2023-05-21T08:31:44.276Z,9.57
2023-05-21T08:34:11.234Z,9.70
2023-05-21T08:36:38.340Z,9.63
2023-05-21T08:39:05.168Z,9.50
2023-05-21T08:41:34.652Z,10.47
2023-05-21T08:44:02.699Z,10.30
2023-05-21T08:46:33.141Z,11.63
2023-05-21T08:49:02.910Z,10.93
2023-05-21T08:51:31.428Z,10.63
2023-05-21T08:53:59.851Z,12.40
2023-05-21T08:56:27.294Z,10.73
2023-05-21T08:58:54.184Z,10.73
2023-05-21T09:01:24.168Z,11.93
2023-05-21T09:04:05.000Z,10.97
2023-05-21T09:06:41.305Z,11.87
2023-05-21T09:09:18.269Z,10.40
2023-05-21T09:11:46.450Z,11.20
2023-05-21T09:14:14.583Z,11.87
2023-05-21T09:16:41.535Z,11.20
2023-05-21T09:19:08.476Z,11.70
2023-05-21T09:21:35.274Z,12.00
2023-05-21T09:24:02.245Z,12.10
2023-05-21T09:26:29.090Z,13.70
2023-05-21T09:29:00.459Z,12.70
2023-05-21T09:31:27.781Z,12.20
2023-05-21T09:33:55.741Z,11.83
2023-05-21T09:36:23.297Z,12.60
2023-05-21T09:38:51.918Z,12.03
2023-05-21T09:41:21.917Z,13.40
2023-05-21T09:43:49.551Z,11.30
2023-05-21T09:46:20.659Z,12.13
2023-05-21T09:48:47.483Z,12.17
2023-05-21T09:51:16.773Z,11.90
2023-05-21T09:54:00.009Z,12.40
2023-05-21T09:56:31.999Z,12.40
2023-05-21T09:59:01.410Z,13.67
2023-05-21T10:01:30.726Z,13.53
2023-05-21T10:03:58.936Z,11.73
2023-05-21T10:06:31.299Z,12.87
2023-05-21T10:09:04.725Z,12.10
2023-05-21T10:11:33.768Z,13.03
2023-05-21T10:14:09.371Z,12.30
2023-05-21T10:16:37.152Z,13.10
2023-05-21T10:19:05.316Z,12.90
2023-05-21T10:21:33.558Z,13.20
2023-05-21T10:24:03.005Z,12.43
2023-05-21T10:26:30.733Z,12.90
2023-05-21T10:29:00.277Z,11.57
2023-05-21T10:31:28.615Z,14.80
2023-05-21T10:33:56.163Z,12.90
2023-05-21T10:36:25.721Z,12.77
2023-05-21T10:38:53.380Z,12.00
2023-05-21T10:41:21.942Z,12.40
2023-05-21T10:44:08.999Z,12.90
2023-05-21T10:46:44.680Z,14.07
2023-05-21T10:49:42.022Z,13.53
2023-05-21T10:52:30.486Z,12.47
2023-05-21T10:55:13.926Z,14.00
2023-05-21T10:58:12.127Z,11.90
2023-05-21T11:00:39.317Z,12.63
2023-05-21T11:03:07.609Z,15.00
2023-05-21T11:05:42.156Z,12.20
2023-05-21T11:08:23.298Z,12.67
2023-05-21T11:10:55.024Z,13.37
2023-05-21T11:13:22.333Z,12.13
2023-05-21T11:15:58.216Z,13.43
2023-05-21T11:18:31.115Z,14.70
2023-05-21T11:21:08.773Z,13.53
2023-05-21T11:23:51.342Z,14.10
2023-05-21T11:26:23.196Z,13.80
2023-05-21T11:29:05.901Z,13.63
2023-05-21T11:31:38.778Z,14.20
2023-05-21T11:34:28.702Z,15.30
2023-05-21T11:37:23.127Z,16.20
2023-05-21T11:39:51.188Z,14.63
2023-05-21T11:42:31.838Z,15.80
2023-05-21T11:45:00.893Z,13.03
2023-05-21T11:47:29.410Z,13.10
2023-05-21T11:49:58.092Z,13.93
2023-05-21T11:52:25.468Z,13.87
2023-05-21T11:54:57.922Z,14.80
2023-05-21T11:57:31.298Z,13.60
2023-05-21T12:00:00.007Z,13.03
2023-05-21T12:02:32.658Z,14.77
2023-05-21T12:05:00.549Z,14.47
2023-05-21T12:07:31.943Z,17.70
2023-05-21T12:09:58.995Z,14.23
2023-05-21T12:12:32.816Z,14.43
2023-05-21T12:15:03.116Z,13.93
2023-05-21T12:17:31.756Z,15.80
2023-05-21T12:19:58.880Z,15.60
2023-05-21T12:22:27.929Z,15.00
2023-05-21T12:24:54.807Z,15.90
2023-05-21T12:27:22.359Z,15.40
2023-05-21T12:29:51.928Z,13.53
2023-05-21T12:32:21.011Z,14.20
2023-05-21T12:34:51.675Z,13.93
2023-05-21T12:37:23.361Z,13.80
2023-05-21T12:39:52.110Z,13.40
2023-05-21T12:42:37.400Z,13.50
2023-05-21T12:45:08.593Z,13.70
2023-05-21T12:47:35.980Z,14.60
2023-05-21T12:50:04.785Z,12.90
2023-05-21T12:52:31.670Z,13.80
2023-05-21T12:54:59.338Z,15.50
2023-05-21T12:57:37.154Z,15.07
2023-05-21T13:00:06.903Z,15.50
2023-05-21T13:02:35.966Z,13.63
2023-05-21T13:05:10.664Z,18.80
2023-05-21T13:07:39.297Z,14.80
2023-05-21T13:10:07.242Z,14.67
2023-05-21T13:12:34.763Z,13.33
2023-05-21T13:15:04.041Z,15.63
2023-05-21T13:17:31.069Z,16.50
2023-05-21T13:20:12.359Z,13.53
2023-05-21T13:22:43.645Z,14.07
2023-05-21T13:25:11.727Z,13.63
2023-05-21T13:27:39.590Z,13.93
2023-05-21T13:30:07.733Z,15.37
2023-05-21T13:32:34.965Z,14.07
2023-05-21T13:35:01.949Z,12.90
2023-05-21T13:37:28.748Z,13.23
2023-05-21T13:39:55.586Z,13.47
2023-05-21T13:42:22.446Z,11.83
2023-05-21T13:44:49.874Z,12.53
2023-05-21T13:47:16.899Z,12.60
2023-05-21T13:49:43.717Z,13.37
2023-05-21T13:52:10.642Z,11.80
2023-05-21T13:54:37.560Z,13.07
2023-05-21T13:57:04.472Z,12.50
2023-05-21T13:59:33.420Z,12.50
2023-05-21T14:02:00.920Z,11.27
2023-05-21T14:04:28.048Z,11.40
2023-05-21T14:06:54.999Z,13.50
2023-05-21T14:09:23.403Z,12.50
2023-05-21T14:11:50.889Z,12.87
2023-05-21T14:14:19.123Z,12.23
2023-05-21T14:16:49.675Z,12.00
2023-05-21T14:19:16.731Z,11.90
2023-05-21T14:21:43.899Z,12.00
2023-05-21T14:24:10.729Z,12.67
2023-05-21T14:26:40.419Z,14.17
2023-05-21T14:29:07.580Z,12.37
2023-05-21T14:31:34.460Z,12.33
2023-05-21T14:34:02.961Z,12.50
2023-05-21T14:36:30.235Z,12.30
2023-05-21T14:38:57.109Z,11.03
2023-05-21T14:41:27.770Z,11.90
2023-05-21T14:43:54.902Z,11.47
2023-05-21T14:46:22.212Z,12.67
2023-05-21T14:48:49.180Z,13.57
2023-05-21T14:51:16.146Z,12.43
2023-05-21T14:53:43.088Z,12.63
2023-05-21T14:56:10.124Z,12.20
2023-05-21T14:58:36.913Z,12.07
2023-05-21T15:01:06.735Z,12.40
2023-05-21T15:03:34.077Z,12.57
2023-05-21T15:06:01.103Z,10.40
2023-05-21T15:08:27.898Z,12.07
2023-05-21T15:10:54.846Z,12.13
2023-05-21T15:13:21.761Z,11.77
2023-05-21T15:15:49.404Z,12.03
2023-05-21T15:18:16.357Z,12.43
2023-05-21T15:20:43.211Z,12.07
2023-05-21T15:23:16.981Z,12.00
2023-05-21T15:25:45.342Z,11.67
2023-05-21T15:28:12.585Z,12.40
2023-05-21T15:30:39.907Z,12.00
2023-05-21T15:33:06.726Z,12.13
2023-05-21T15:35:34.955Z,11.77
2023-05-21T15:38:02.130Z,11.43
2023-05-21T15:40:28.944Z,12.03
2023-05-21T15:42:55.803Z,10.50
2023-05-21T15:45:22.634Z,12.10
2023-05-21T15:47:49.522Z,11.37
2023-05-21T15:50:16.449Z,11.77
2023-05-21T15:52:43.319Z,12.20
2023-05-21T15:55:10.253Z,12.27
2023-05-21T15:57:37.087Z,11.17
2023-05-21T16:00:04.991Z,10.10
2023-05-21T16:02:32.012Z,11.30
2023-05-21T16:04:58.983Z,10.43
2023-05-21T16:07:25.867Z,11.37
2023-05-21T16:09:52.720Z,10.33
2023-05-21T16:12:19.564Z,10.83
2023-05-21T16:14:49.962Z,10.67
2023-05-21T16:17:17.258Z,10.90
2023-05-21T16:19:44.108Z,11.63
2023-05-21T16:22:11.119Z,11.93
2023-05-21T16:24:38.017Z,11.63
2023-05-21T16:27:05.095Z,13.10
2023-05-21T16:29:32.160Z,12.47
2023-05-21T16:31:59.066Z,12.57
2023-05-21T16:34:25.989Z,12.77
2023-05-21T16:36:52.911Z,13.13
2023-05-21T16:39:19.829Z,13.23
2023-05-21T16:41:46.639Z,12.40
2023-05-21T16:44:14.056Z,13.90
2023-05-21T16:46:40.972Z,13.93
2023-05-21T16:49:07.856Z,12.20
2023-05-21T16:51:34.797Z,13.40
2023-05-21T16:54:04.181Z,13.70
2023-05-21T16:56:31.514Z,13.20
2023-05-21T16:58:58.360Z,13.40
2023-05-21T17:01:25.507Z,13.20
2023-05-21T17:03:52.979Z,14.67
2023-05-21T17:06:20.076Z,12.50
2023-05-21T17:08:47.282Z,14.40
2023-05-21T17:11:14.139Z,13.87
2023-05-21T17:13:41.109Z,14.40
2023-05-21T17:16:08.038Z,14.70
2023-05-21T17:18:34.944Z,14.77
2023-05-21T17:21:01.789Z,13.00
2023-05-21T17:23:28.633Z,13.00
2023-05-21T17:25:55.499Z,13.87
2023-05-21T17:28:22.340Z,13.50
2023-05-21T17:30:49.741Z,13.27
2023-05-21T17:33:16.945Z,13.30
2023-05-21T17:35:44.172Z,15.03
2023-05-21T17:38:11.047Z,14.00
2023-05-21T17:40:37.897Z,14.00
2023-05-21T17:43:05.243Z,14.50
2023-05-21T17:45:32.301Z,13.67
2023-05-21T17:48:00.470Z,14.23
2023-05-21T17:50:27.826Z,14.40
2023-05-21T17:52:54.750Z,14.03
2023-05-21T17:55:21.651Z,13.90
2023-05-21T17:57:48.526Z,14.20
2023-05-21T18:00:15.487Z,13.40
2023-05-21T18:02:42.536Z,13.40
2023-05-21T18:05:09.433Z,14.80
2023-05-21T18:07:37.207Z,13.00
2023-05-21T18:10:04.350Z,13.90
2023-05-21T18:12:31.197Z,14.23
2023-05-21T18:14:58.061Z,13.63
2023-05-21T18:17:24.952Z,14.17
2023-05-21T18:19:51.819Z,14.50
2023-05-21T18:22:18.639Z,13.70
2023-05-21T18:24:46.247Z,12.67
2023-05-21T18:27:13.539Z,13.67
2023-05-21T18:29:40.489Z,14.40
2023-05-21T18:32:07.898Z,13.90
2023-05-21T18:34:34.827Z,14.00
2023-05-21T18:37:01.839Z,13.13
2023-05-21T18:39:28.664Z,13.50
2023-05-21T18:42:11.510Z,14.10
2023-05-21T18:44:40.107Z,12.43
2023-05-21T18:47:07.734Z,13.20
2023-05-21T18:49:36.131Z,13.80
2023-05-21T18:52:04.110Z,13.80
2023-05-21T18:54:31.153Z,14.33
2023-05-21T18:57:00.423Z,14.17
2023-05-21T18:59:28.649Z,13.30
2023-05-21T19:01:55.721Z,14.80
2023-05-21T19:04:22.732Z,13.73
2023-05-21T19:06:49.684Z,13.17
2023-05-21T19:09:19.103Z,13.57
2023-05-21T19:11:46.051Z,13.73
2023-05-21T19:14:13.030Z,13.83
2023-05-21T19:16:39.807Z,14.00
2023-05-21T19:19:06.757Z,13.83
2023-05-21T19:21:33.853Z,14.13
2023-05-21T19:24:01.270Z,13.87
2023-05-21T19:26:28.167Z,12.70
2023-05-21T19:28:55.479Z,14.97
2023-05-21T19:31:23.354Z,13.07
2023-05-21T19:33:50.619Z,14.20
2023-05-21T19:36:18.472Z,14.90
2023-05-21T19:38:49.447Z,12.70
2023-05-21T19:41:17.064Z,12.97
2023-05-21T19:43:44.679Z,13.87
2023-05-21T19:46:11.687Z,15.67
2023-05-21T19:48:38.706Z,14.13
2023-05-21T19:51:05.920Z,13.97
2023-05-21T19:53:32.833Z,14.80
2023-05-21T19:56:00.033Z,12.37
2023-05-21T19:58:29.663Z,9.87
2023-05-21T20:00:59.241Z,11.30
2023-05-21T20:03:26.844Z,10.73
2023-05-21T20:05:54.537Z,9.67
2023-05-21T20:08:21.711Z,10.30
2023-05-21T20:10:51.345Z,9.77
2023-05-21T20:13:19.275Z,8.90
2023-05-21T20:15:48.004Z,8.57
2023-05-21T20:18:15.552Z,8.57
2023-05-21T20:20:42.989Z,9.87
2023-05-21T20:23:09.867Z,8.77
2023-05-21T20:25:36.875Z,7.93
2023-05-21T20:28:05.297Z,8.50
2023-05-21T20:30:34.238Z,7.97
2023-05-21T20:33:02.461Z,9.00
2023-05-21T20:35:29.418Z,7.50
2023-05-21T20:37:56.713Z,6.97
2023-05-21T20:40:23.626Z,7.30
2023-05-21T20:42:53.593Z,8.00
2023-05-21T20:45:21.142Z,8.20
2023-05-21T20:47:49.702Z,9.10
2023-05-21T20:50:17.827Z,8.40
2023-05-21T20:52:47.083Z,8.70
2023-05-21T20:55:14.767Z,8.10
2023-05-21T20:57:42.167Z,9.20
2023-05-21T21:00:11.640Z,11.10
2023-05-21T21:02:38.873Z,9.97
2023-05-21T21:05:06.470Z,7.30
2023-05-21T21:07:34.325Z,7.80
2023-05-21T21:10:01.488Z,7.43
2023-05-21T21:12:28.609Z,6.70
2023-05-21T21:14:55.786Z,5.90
2023-05-21T21:17:23.136Z,5.40
2023-05-21T21:19:50.177Z,6.17
2023-05-21T21:22:18.353Z,9.10
2023-05-21T21:24:45.640Z,9.33
2023-05-21T21:27:12.507Z,6.50
2023-05-21T21:29:39.387Z,6.80
2023-05-21T21:32:06.691Z,6.97
2023-05-21T21:34:33.464Z,8.57
2023-05-21T21:37:00.301Z,6.80
2023-05-21T21:39:27.144Z,8.10
2023-05-21T21:41:54.180Z,8.03
2023-05-21T21:44:21.294Z,7.90
2023-05-21T21:46:48.318Z,7.67
2023-05-21T21:49:17.244Z,8.80
2023-05-21T21:51:44.661Z,7.87
2023-05-21T21:54:11.942Z,7.57
2023-05-21T21:56:38.782Z,7.33
2023-05-21T21:59:05.728Z,6.97
2023-05-21T22:01:32.822Z,8.07
2023-05-21T22:03:59.714Z,8.97
2023-05-21T22:06:27.672Z,7.80
2023-05-21T22:08:54.990Z,8.03
2023-05-21T22:11:22.011Z,8.60
2023-05-21T22:13:48.984Z,8.63
2023-05-21T22:16:16.110Z,16.23
2023-05-21T22:18:43.034Z,8.47
2023-05-21T22:21:10.983Z,8.73
2023-05-21T22:23:38.699Z,7.87
2023-05-21T22:26:08.941Z,9.30
2023-05-21T22:28:35.953Z,9.37
2023-05-21T22:31:03.206Z,8.53
2023-05-21T22:33:30.246Z,8.83
2023-05-21T22:35:57.193Z,8.50
2023-05-21T22:38:24.539Z,8.67
2023-05-21T22:40:51.497Z,8.93
2023-05-21T22:43:18.346Z,8.70
2023-05-21T22:45:45.186Z,9.13
2023-05-21T22:48:12.117Z,9.27
2023-05-21T22:50:39.294Z,8.73
2023-05-21T22:53:06.889Z,8.47
2023-05-21T22:55:33.755Z,9.00
2023-05-21T22:58:00.748Z,9.83
2023-05-21T23:00:27.549Z,10.47
2023-05-21T23:02:54.970Z,9.00
2023-05-21T23:05:22.364Z,9.70
2023-05-21T23:07:49.663Z,9.20
2023-05-21T23:10:16.614Z,8.60
2023-05-21T23:12:43.564Z,9.40
2023-05-21T23:15:10.871Z,9.07
2023-05-21T23:17:38.448Z,9.70
2023-05-21T23:20:07.180Z,9.73
2023-05-21T23:22:34.782Z,8.93
2023-05-21T23:25:01.738Z,9.47
2023-05-21T23:27:29.262Z,9.30
2023-05-21T23:29:56.422Z,9.17
2023-05-21T23:32:23.625Z,9.40
2023-05-21T23:34:50.825Z,9.03
2023-05-21T23:37:17.829Z,8.67
2023-05-21T23:39:48.187Z,10.00
2023-05-21T23:42:18.381Z,9.90
2023-05-21T23:44:45.414Z,10.10
2023-05-21T23:47:12.237Z,10.90
2023-05-21T23:49:39.686Z,11.03
2023-05-21T23:52:07.110Z,9.93
2023-05-21T23:54:34.065Z,10.00
2023-05-21T23:57:02.040Z,10.83
2023-05-21T23:59:29.187Z,9.57
